createdAt,value
2022-09-16T00:00:02.964Z,970.48
2022-09-16T00:01:03.185Z,970.57
2022-09-16T00:02:03.160Z,970.71
2022-09-16T00:03:03.184Z,970.60
2022-09-16T00:04:03.264Z,970.86
2022-09-16T00:05:03.233Z,970.69
2022-09-16T00:06:03.258Z,970.83
2022-09-16T00:07:03.307Z,970.75
2022-09-16T00:08:03.264Z,970.66
2022-09-16T00:09:03.388Z,970.72
2022-09-16T00:10:03.853Z,970.81
2022-09-16T00:11:03.859Z,970.78
2022-09-16T00:12:03.005Z,970.78
2022-09-16T00:13:03.064Z,970.78
2022-09-16T00:14:03.207Z,970.84
2022-09-16T00:15:03.115Z,970.84
2022-09-16T00:16:03.346Z,970.69
2022-09-16T00:17:03.299Z,970.84
2022-09-16T00:18:03.325Z,970.86
2022-09-16T00:19:03.339Z,970.84
2022-09-16T00:20:03.561Z,970.72
2022-09-16T00:21:03.550Z,970.86
2022-09-16T00:22:03.621Z,970.89
2022-09-16T00:23:03.789Z,970.69
2022-09-16T00:24:03.891Z,970.95
2022-09-16T00:25:02.934Z,970.75
2022-09-16T00:26:02.904Z,970.75
2022-09-16T00:27:03.366Z,970.81
2022-09-16T00:28:03.606Z,970.72
2022-09-16T00:29:03.500Z,970.78
2022-09-16T00:30:04.602Z,970.66
2022-09-16T00:31:03.537Z,970.69
2022-09-16T00:32:03.583Z,970.72
2022-09-16T00:33:03.779Z,970.72
2022-09-16T00:34:03.790Z,970.78
2022-09-16T00:35:03.766Z,970.63
2022-09-16T00:36:03.707Z,970.72
2022-09-16T00:37:03.657Z,970.67
2022-09-16T00:38:03.788Z,970.78
2022-09-16T00:39:03.837Z,970.69
2022-09-16T00:40:03.922Z,970.67
2022-09-16T00:41:03.906Z,970.61
2022-09-16T00:42:03.910Z,970.52
2022-09-16T00:43:02.968Z,970.69
2022-09-16T00:44:02.924Z,970.49
2022-09-16T00:45:02.966Z,970.55
2022-09-16T00:46:02.993Z,970.49
2022-09-16T00:47:03.009Z,970.47
2022-09-16T00:48:03.096Z,970.52
2022-09-16T00:49:03.180Z,970.44
2022-09-16T00:50:03.257Z,970.55
2022-09-16T00:51:03.384Z,970.55
2022-09-16T00:52:03.389Z,970.64
2022-09-16T00:53:03.362Z,970.40
2022-09-16T00:54:03.419Z,970.44
2022-09-16T00:55:03.434Z,970.44
2022-09-16T00:56:03.484Z,970.42
2022-09-16T00:57:03.448Z,970.42
2022-09-16T00:58:03.215Z,970.53
2022-09-16T00:59:03.427Z,970.37
2022-09-16T01:00:03.367Z,970.34
2022-09-16T01:01:03.429Z,970.34
2022-09-16T01:02:03.542Z,970.53
2022-09-16T01:03:03.444Z,970.48
2022-09-16T01:04:03.447Z,970.53
2022-09-16T01:05:03.440Z,970.59
2022-09-16T01:06:03.492Z,970.53
2022-09-16T01:07:03.303Z,970.51
2022-09-16T01:08:03.321Z,970.59
2022-09-16T01:09:03.434Z,970.65
2022-09-16T01:10:03.498Z,970.54
2022-09-16T01:11:03.602Z,970.62
2022-09-16T01:12:03.723Z,970.62
2022-09-16T01:13:03.733Z,970.54
2022-09-16T01:14:03.868Z,970.60
2022-09-16T01:15:02.924Z,970.51
2022-09-16T01:16:03.015Z,970.57
2022-09-16T01:17:03.039Z,970.54
2022-09-16T01:18:03.038Z,970.48
2022-09-16T01:19:03.685Z,970.45
2022-09-16T01:20:04.470Z,970.48
2022-09-16T01:21:06.010Z,970.48
2022-09-16T01:22:03.796Z,970.60
2022-09-16T01:23:06.487Z,970.60
2022-09-16T01:24:03.711Z,970.48
2022-09-16T01:25:03.797Z,970.41
2022-09-16T01:26:03.747Z,970.54
2022-09-16T01:27:03.774Z,970.66
2022-09-16T01:28:03.832Z,970.57
2022-09-16T01:29:03.879Z,970.49
2022-09-16T01:30:02.885Z,970.63
2022-09-16T01:31:03.120Z,970.60
2022-09-16T01:32:02.956Z,970.49
2022-09-16T01:33:03.029Z,970.46
2022-09-16T01:34:03.043Z,970.55
2022-09-16T01:35:03.169Z,970.49
2022-09-16T01:36:03.189Z,970.58
2022-09-16T01:37:03.335Z,970.52
2022-09-16T01:38:03.282Z,970.42
2022-09-16T01:39:03.304Z,970.66
2022-09-16T01:40:03.375Z,970.58
2022-09-16T01:41:03.438Z,970.58
2022-09-16T01:42:03.499Z,970.64
2022-09-16T01:43:03.557Z,970.58
2022-09-16T01:44:03.696Z,970.67
2022-09-16T01:45:03.702Z,970.49
2022-09-16T01:46:03.879Z,970.49
2022-09-16T01:47:03.752Z,970.52
2022-09-16T01:48:03.677Z,970.61
2022-09-16T01:49:03.722Z,970.72
2022-09-16T01:50:03.688Z,970.55
2022-09-16T01:51:03.693Z,970.55
2022-09-16T01:52:03.668Z,970.39
2022-09-16T01:53:03.811Z,970.61
2022-09-16T01:54:02.952Z,970.53
2022-09-16T01:55:03.795Z,970.50
2022-09-16T01:56:03.886Z,970.50
2022-09-16T01:57:02.948Z,970.53
2022-09-16T01:58:02.907Z,970.42
2022-09-16T01:59:02.921Z,970.47
2022-09-16T02:00:02.954Z,970.50
2022-09-16T02:01:03.632Z,970.56
2022-09-16T02:02:04.037Z,970.50
2022-09-16T02:03:03.819Z,970.31
2022-09-16T02:04:03.767Z,970.53
2022-09-16T02:05:03.799Z,970.42
2022-09-16T02:06:03.765Z,970.37
2022-09-16T02:07:02.933Z,970.40
2022-09-16T02:08:03.086Z,970.37
2022-09-16T02:09:03.099Z,970.40
2022-09-16T02:10:03.225Z,970.48
2022-09-16T02:11:03.295Z,970.35
2022-09-16T02:12:03.317Z,970.32
2022-09-16T02:13:03.367Z,970.41
2022-09-16T02:14:03.535Z,970.51
2022-09-16T02:15:03.550Z,970.38
2022-09-16T02:16:03.714Z,970.35
2022-09-16T02:17:03.652Z,970.46
2022-09-16T02:18:03.608Z,970.46
2022-09-16T02:19:03.626Z,970.35
2022-09-16T02:20:03.673Z,970.38
2022-09-16T02:21:03.881Z,970.38
2022-09-16T02:22:03.870Z,970.35
2022-09-16T02:23:02.957Z,970.27
2022-09-16T02:24:03.014Z,970.30
2022-09-16T02:25:03.207Z,970.30
2022-09-16T02:26:03.153Z,970.41
2022-09-16T02:27:03.159Z,970.46
2022-09-16T02:28:03.140Z,970.43
2022-09-16T02:29:03.277Z,970.46
2022-09-16T02:30:03.270Z,970.36
2022-09-16T02:31:03.377Z,970.41
2022-09-16T02:32:03.355Z,970.52
2022-09-16T02:33:03.521Z,970.43
2022-09-16T02:34:03.503Z,970.39
2022-09-16T02:35:03.551Z,970.39
2022-09-16T02:36:03.490Z,970.46
2022-09-16T02:37:03.573Z,970.43
2022-09-16T02:38:03.662Z,970.52
2022-09-16T02:39:03.624Z,970.49
2022-09-16T02:40:03.567Z,970.39
2022-09-16T02:41:03.651Z,970.42
2022-09-16T02:42:03.560Z,970.43
2022-09-16T02:43:04.994Z,970.49
2022-09-16T02:44:03.074Z,970.30
2022-09-16T02:45:03.051Z,970.55
2022-09-16T02:46:03.416Z,970.46
2022-09-16T02:47:03.287Z,970.42
2022-09-16T02:48:03.331Z,970.49
2022-09-16T02:49:03.243Z,970.46
2022-09-16T02:50:03.289Z,970.46
2022-09-16T02:51:03.235Z,970.43
2022-09-16T02:52:03.297Z,970.39
2022-09-16T02:53:03.250Z,970.42
2022-09-16T02:54:03.402Z,970.43
2022-09-16T02:55:03.336Z,970.27
2022-09-16T02:56:03.735Z,970.33
2022-09-16T02:57:03.712Z,970.39
2022-09-16T02:58:03.750Z,970.49
2022-09-16T02:59:03.838Z,970.43
2022-09-16T03:00:03.869Z,970.36
2022-09-16T03:01:03.892Z,970.27
2022-09-16T03:02:04.011Z,970.39
2022-09-16T03:03:03.131Z,970.39
2022-09-16T03:04:03.901Z,970.42
2022-09-16T03:05:03.921Z,970.39
2022-09-16T03:06:03.877Z,970.39
2022-09-16T03:07:03.894Z,970.36
2022-09-16T03:08:03.955Z,970.49
2022-09-16T03:09:03.769Z,970.43
2022-09-16T03:10:02.883Z,970.36
2022-09-16T03:11:03.316Z,970.42
2022-09-16T03:12:03.400Z,970.30
2022-09-16T03:13:03.458Z,970.49
2022-09-16T03:14:03.370Z,970.27
2022-09-16T03:15:03.457Z,970.33
2022-09-16T03:16:03.912Z,970.36
2022-09-16T03:17:03.712Z,970.36
2022-09-16T03:18:03.659Z,970.39
2022-09-16T03:19:03.662Z,970.43
2022-09-16T03:20:03.725Z,970.55
2022-09-16T03:21:03.090Z,970.42
2022-09-16T03:22:03.143Z,970.52
2022-09-16T03:23:03.208Z,970.43
2022-09-16T03:24:03.266Z,970.39
2022-09-16T03:25:03.291Z,970.36
2022-09-16T03:26:03.298Z,970.55
2022-09-16T03:27:03.391Z,970.33
2022-09-16T03:28:03.475Z,970.43
2022-09-16T03:29:03.473Z,970.39
2022-09-16T03:30:03.674Z,970.42
2022-09-16T03:31:03.726Z,970.36
2022-09-16T03:32:03.622Z,970.42
2022-09-16T03:33:03.626Z,970.42
2022-09-16T03:34:03.508Z,970.39
2022-09-16T03:35:03.669Z,970.46
2022-09-16T03:36:03.636Z,970.43
2022-09-16T03:37:03.787Z,970.33
2022-09-16T03:38:03.819Z,970.46
2022-09-16T03:39:03.829Z,970.36
2022-09-16T03:40:03.974Z,970.36
2022-09-16T03:41:03.866Z,970.44
2022-09-16T03:42:03.872Z,970.28
2022-09-16T03:43:03.855Z,970.30
2022-09-16T03:44:04.694Z,970.25
2022-09-16T03:45:03.853Z,970.33
2022-09-16T03:46:03.800Z,970.33
2022-09-16T03:47:03.817Z,970.30
2022-09-16T03:48:03.762Z,970.19
2022-09-16T03:49:03.831Z,970.43
2022-09-16T03:50:03.847Z,970.33
2022-09-16T03:51:02.931Z,970.27
2022-09-16T03:52:03.012Z,970.36
2022-09-16T03:53:02.977Z,970.33
2022-09-16T03:54:03.113Z,970.39
2022-09-16T03:55:03.145Z,970.33
2022-09-16T03:56:03.158Z,970.22
2022-09-16T03:57:03.132Z,970.36
2022-09-16T03:58:03.186Z,970.30
2022-09-16T03:59:03.196Z,970.43
2022-09-16T04:00:03.279Z,970.33
2022-09-16T04:01:03.358Z,970.33
2022-09-16T04:02:03.476Z,970.27
2022-09-16T04:03:03.588Z,970.36
2022-09-16T04:04:03.494Z,970.38
2022-09-16T04:05:03.467Z,970.30
2022-09-16T04:06:03.499Z,970.38
2022-09-16T04:07:03.515Z,970.36
2022-09-16T04:08:03.493Z,970.36
2022-09-16T04:09:03.537Z,970.41
2022-09-16T04:10:03.609Z,970.24
2022-09-16T04:11:03.609Z,970.33
2022-09-16T04:12:03.631Z,970.30
2022-09-16T04:13:03.652Z,970.43
2022-09-16T04:14:03.607Z,970.38
2022-09-16T04:15:03.586Z,970.46
2022-09-16T04:16:03.827Z,970.35
2022-09-16T04:17:03.660Z,970.38
2022-09-16T04:18:03.767Z,970.38
2022-09-16T04:19:04.188Z,970.32
2022-09-16T04:20:03.749Z,970.35
2022-09-16T04:21:03.714Z,970.26
2022-09-16T04:22:03.627Z,970.35
2022-09-16T04:23:03.624Z,970.26
2022-09-16T04:24:03.701Z,970.42
2022-09-16T04:25:04.039Z,970.42
2022-09-16T04:26:03.078Z,970.35
2022-09-16T04:27:03.052Z,970.26
2022-09-16T04:28:03.101Z,970.35
2022-09-16T04:29:03.082Z,970.38
2022-09-16T04:30:03.090Z,970.40
2022-09-16T04:31:03.086Z,970.35
2022-09-16T04:32:03.063Z,970.32
2022-09-16T04:33:03.067Z,970.32
2022-09-16T04:34:03.001Z,970.42
2022-09-16T04:35:02.980Z,970.26
2022-09-16T04:36:03.075Z,970.35
2022-09-16T04:37:03.022Z,970.29
2022-09-16T04:38:03.038Z,970.18
2022-09-16T04:39:03.136Z,970.23
2022-09-16T04:40:05.498Z,970.40
2022-09-16T04:41:03.302Z,970.29
2022-09-16T04:42:03.344Z,970.32
2022-09-16T04:43:03.401Z,970.32
2022-09-16T04:44:03.455Z,970.26
2022-09-16T04:45:03.465Z,970.37
2022-09-16T04:46:03.633Z,970.35
2022-09-16T04:47:03.408Z,970.32
2022-09-16T04:48:03.416Z,970.35
2022-09-16T04:49:03.531Z,970.32
2022-09-16T04:50:03.427Z,970.48
2022-09-16T04:51:03.580Z,970.37
2022-09-16T04:52:03.558Z,970.26
2022-09-16T04:53:03.609Z,970.32
2022-09-16T04:54:03.641Z,970.37
2022-09-16T04:55:03.846Z,970.34
2022-09-16T04:56:03.832Z,970.17
2022-09-16T04:57:02.939Z,970.31
2022-09-16T04:58:02.937Z,970.29
2022-09-16T04:59:03.053Z,970.34
2022-09-16T05:00:04.339Z,970.31
2022-09-16T05:01:03.125Z,970.23
2022-09-16T05:02:03.008Z,970.23
2022-09-16T05:03:03.215Z,970.17
2022-09-16T05:04:02.976Z,970.23
2022-09-16T05:05:03.165Z,970.23
2022-09-16T05:06:03.179Z,970.08
2022-09-16T05:07:03.198Z,970.20
2022-09-16T05:08:03.226Z,970.17
2022-09-16T05:09:03.084Z,970.20
2022-09-16T05:10:03.186Z,970.28
2022-09-16T05:11:03.223Z,970.25
2022-09-16T05:12:03.066Z,970.17
2022-09-16T05:13:03.120Z,970.25
2022-09-16T05:14:03.057Z,970.37
2022-09-16T05:15:03.167Z,970.25
2022-09-16T05:16:03.336Z,970.44
2022-09-16T05:17:03.304Z,970.39
2022-09-16T05:18:03.334Z,970.39
2022-09-16T05:19:03.446Z,970.39
2022-09-16T05:20:03.445Z,970.50
2022-09-16T05:21:03.479Z,970.31
2022-09-16T05:22:03.615Z,970.47
2022-09-16T05:23:03.578Z,970.31
2022-09-16T05:24:03.541Z,970.36
2022-09-16T05:25:03.549Z,970.42
2022-09-16T05:26:03.487Z,970.36
2022-09-16T05:27:03.545Z,970.39
2022-09-16T05:28:03.434Z,970.34
2022-09-16T05:29:03.512Z,970.34
2022-09-16T05:30:03.423Z,970.42
2022-09-16T05:31:03.809Z,970.34
2022-09-16T05:32:03.498Z,970.34
2022-09-16T05:33:03.566Z,970.22
2022-09-16T05:34:03.573Z,970.39
2022-09-16T05:35:03.584Z,970.30
2022-09-16T05:36:03.643Z,970.22
2022-09-16T05:37:03.824Z,970.30
2022-09-16T05:38:03.895Z,970.44
2022-09-16T05:39:25.183Z,970.33
2022-09-16T05:40:03.971Z,970.27
2022-09-16T05:41:03.843Z,970.36
2022-09-16T05:42:03.885Z,970.24
2022-09-16T05:43:03.002Z,970.27
2022-09-16T05:44:02.976Z,970.30
2022-09-16T05:45:03.911Z,970.39
2022-09-16T05:46:02.984Z,970.24
2022-09-16T05:47:03.026Z,970.19
2022-09-16T05:48:03.007Z,970.38
2022-09-16T05:49:02.998Z,970.27
2022-09-16T05:50:03.946Z,970.41
2022-09-16T05:51:03.903Z,970.35
2022-09-16T05:52:02.978Z,970.41
2022-09-16T05:53:02.912Z,970.38
2022-09-16T05:54:02.966Z,970.35
2022-09-16T05:55:03.237Z,970.32
2022-09-16T05:56:03.373Z,970.35
2022-09-16T05:57:07.486Z,970.32
2022-09-16T05:58:03.223Z,970.32
2022-09-16T05:59:03.191Z,970.29
2022-09-16T06:00:03.449Z,970.38
2022-09-16T06:01:03.461Z,970.42
2022-09-16T06:02:03.607Z,970.32
2022-09-16T06:03:03.258Z,970.32
2022-09-16T06:04:03.113Z,970.37
2022-09-16T06:05:03.215Z,970.34
2022-09-16T06:06:03.181Z,970.30
2022-09-16T06:07:03.189Z,970.55
2022-09-16T06:08:03.115Z,970.43
2022-09-16T06:09:03.230Z,970.33
2022-09-16T06:10:03.195Z,970.35
2022-09-16T06:11:03.267Z,970.32
2022-09-16T06:12:03.385Z,970.41
2022-09-16T06:13:03.436Z,970.32
2022-09-16T06:14:03.606Z,970.45
2022-09-16T06:15:03.615Z,970.42
2022-09-16T06:16:03.853Z,970.48
2022-09-16T06:17:03.633Z,970.50
2022-09-16T06:18:06.865Z,970.48
2022-09-16T06:19:03.785Z,970.47
2022-09-16T06:20:03.651Z,970.47
2022-09-16T06:21:03.735Z,970.47
2022-09-16T06:22:03.760Z,970.47
2022-09-16T06:23:04.024Z,970.53
2022-09-16T06:24:02.995Z,970.50
2022-09-16T06:25:02.932Z,970.44
2022-09-16T06:26:03.035Z,970.43
2022-09-16T06:27:03.153Z,970.46
2022-09-16T06:28:02.998Z,970.63
2022-09-16T06:29:03.115Z,970.48
2022-09-16T06:30:03.153Z,970.45
2022-09-16T06:31:03.292Z,970.44
2022-09-16T06:32:03.024Z,970.50
2022-09-16T06:33:03.206Z,970.55
2022-09-16T06:34:03.158Z,970.44
2022-09-16T06:35:03.117Z,970.36
2022-09-16T06:36:03.052Z,970.55
2022-09-16T06:37:03.167Z,970.57
2022-09-16T06:38:03.151Z,970.43
2022-09-16T06:39:03.178Z,970.52
2022-09-16T06:40:03.112Z,970.52
2022-09-16T06:41:03.048Z,970.66
2022-09-16T06:42:03.108Z,970.52
2022-09-16T06:43:03.173Z,970.58
2022-09-16T06:44:03.112Z,970.61
2022-09-16T06:45:03.132Z,970.58
2022-09-16T06:46:03.299Z,970.61
2022-09-16T06:47:03.197Z,970.52
2022-09-16T06:48:03.111Z,970.47
2022-09-16T06:49:06.798Z,970.61
2022-09-16T06:50:03.181Z,970.50
2022-09-16T06:51:03.322Z,970.56
2022-09-16T06:52:03.391Z,970.59
2022-09-16T06:53:03.410Z,970.44
2022-09-16T06:54:03.434Z,970.47
2022-09-16T06:55:03.496Z,970.53
2022-09-16T06:56:03.494Z,970.56
2022-09-16T06:57:03.578Z,970.50
2022-09-16T06:58:02.930Z,970.56
2022-09-16T06:59:03.037Z,970.55
2022-09-16T07:00:03.022Z,970.50
2022-09-16T07:01:03.303Z,970.58
2022-09-16T07:02:03.221Z,970.42
2022-09-16T07:03:03.277Z,970.52
2022-09-16T07:04:03.286Z,970.38
2022-09-16T07:05:03.745Z,970.51
2022-09-16T07:06:03.734Z,970.42
2022-09-16T07:07:11.120Z,970.42
2022-09-16T07:08:03.917Z,970.42
2022-09-16T07:09:03.180Z,970.29
2022-09-16T07:10:03.227Z,970.42
2022-09-16T07:11:03.512Z,970.36
2022-09-16T07:12:03.474Z,970.49
2022-09-16T07:13:03.439Z,970.38
2022-09-16T07:14:03.578Z,970.28
2022-09-16T07:15:03.559Z,970.39
2022-09-16T07:16:14.213Z,970.43
2022-09-16T07:17:03.912Z,970.35
2022-09-16T07:18:03.652Z,970.43
2022-09-16T07:19:03.894Z,970.40
2022-09-16T07:20:03.552Z,970.68
2022-09-16T07:21:03.595Z,970.34
2022-09-16T07:22:03.566Z,970.50
2022-09-16T07:23:03.546Z,970.70
2022-09-16T07:24:03.467Z,970.64
2022-09-16T07:25:03.588Z,970.64
2022-09-16T07:26:03.595Z,970.72
2022-09-16T07:27:03.147Z,970.66
2022-09-16T07:28:03.140Z,970.57
2022-09-16T07:29:03.079Z,970.71
2022-09-16T07:30:09.289Z,970.68
2022-09-16T07:31:03.306Z,970.70
2022-09-16T07:32:03.187Z,970.73
2022-09-16T07:33:03.103Z,970.84
2022-09-16T07:34:04.956Z,970.81
2022-09-16T07:35:03.170Z,970.84
2022-09-16T07:36:03.122Z,970.90
2022-09-16T07:37:03.128Z,970.99
2022-09-16T07:38:03.234Z,970.91
2022-09-16T07:39:03.211Z,971.05
2022-09-16T07:40:03.326Z,971.05
2022-09-16T07:41:03.504Z,971.00
2022-09-16T07:42:06.448Z,971.17
2022-09-16T07:43:03.637Z,971.14
2022-09-16T07:44:03.749Z,971.11
2022-09-16T07:45:03.683Z,971.13
2022-09-16T07:46:04.004Z,971.19
2022-09-16T07:47:03.830Z,971.16
2022-09-16T07:48:03.807Z,971.19
2022-09-16T07:49:03.754Z,971.13
2022-09-16T07:50:03.956Z,971.13
2022-09-16T07:51:02.972Z,971.08
2022-09-16T07:52:03.109Z,971.28
2022-09-16T07:53:03.089Z,971.25
2022-09-16T07:54:03.079Z,971.28
2022-09-16T07:55:03.110Z,971.28
2022-09-16T07:56:03.026Z,971.23
2022-09-16T07:57:03.015Z,971.43
2022-09-16T07:58:03.064Z,971.38
2022-09-16T07:59:03.161Z,971.46
2022-09-16T08:00:03.088Z,971.35
2022-09-16T08:01:05.438Z,971.41
2022-09-16T08:02:03.387Z,971.35
2022-09-16T08:03:03.330Z,971.35
2022-09-16T08:04:03.045Z,971.35
2022-09-16T08:05:03.141Z,971.33
2022-09-16T08:06:03.206Z,971.42
2022-09-16T08:07:03.246Z,971.45
2022-09-16T08:08:03.213Z,971.57
2022-09-16T08:09:37.061Z,971.40
2022-09-16T08:10:03.798Z,971.43
2022-09-16T08:11:03.364Z,971.49
2022-09-16T08:12:03.326Z,971.55
2022-09-16T08:13:03.408Z,971.59
2022-09-16T08:14:03.346Z,971.62
2022-09-16T08:15:03.337Z,971.45
2022-09-16T08:16:03.556Z,971.56
2022-09-16T08:17:03.641Z,971.57
2022-09-16T08:18:03.644Z,971.65
2022-09-16T08:19:03.789Z,971.57
2022-09-16T08:20:03.678Z,971.46
2022-09-16T08:21:03.921Z,971.49
2022-09-16T08:22:03.791Z,971.52
2022-09-16T08:23:03.804Z,971.55
2022-09-16T08:24:03.749Z,971.63
2022-09-16T08:25:03.769Z,971.49
2022-09-16T08:26:03.843Z,971.40
2022-09-16T08:27:03.890Z,971.49
2022-09-16T08:28:03.832Z,971.57
2022-09-16T08:29:10.296Z,971.54
2022-09-16T08:30:03.907Z,971.37
2022-09-16T08:31:03.853Z,971.54
2022-09-16T08:32:03.882Z,971.57
2022-09-16T08:33:03.006Z,971.51
2022-09-16T08:34:03.057Z,971.60
2022-09-16T08:35:03.856Z,971.54
2022-09-16T08:36:03.777Z,971.62
2022-09-16T08:37:03.966Z,971.50
2022-09-16T08:38:02.946Z,971.59
2022-09-16T08:39:03.090Z,971.47
2022-09-16T08:40:03.611Z,971.53
2022-09-16T08:41:03.187Z,971.58
2022-09-16T08:42:03.254Z,971.61
2022-09-16T08:43:03.374Z,971.61
2022-09-16T08:44:03.475Z,971.52
2022-09-16T08:45:03.472Z,971.52
2022-09-16T08:46:03.720Z,971.61
2022-09-16T08:47:03.706Z,971.73
2022-09-16T08:48:03.740Z,971.70
2022-09-16T08:49:04.947Z,971.50
2022-09-16T08:50:06.532Z,971.55
2022-09-16T08:51:03.769Z,971.52
2022-09-16T08:52:03.806Z,971.52
2022-09-16T08:53:03.874Z,971.61
2022-09-16T08:54:03.932Z,971.55
2022-09-16T08:55:02.928Z,971.54
2022-09-16T08:56:03.847Z,971.66
2022-09-16T08:57:02.968Z,971.48
2022-09-16T08:58:03.485Z,971.63
2022-09-16T08:59:03.522Z,971.51
2022-09-16T09:00:03.540Z,971.51
2022-09-16T09:01:03.950Z,971.45
2022-09-16T09:02:10.112Z,971.54
2022-09-16T09:03:03.400Z,971.62
2022-09-16T09:04:03.479Z,971.36
2022-09-16T09:05:03.355Z,971.73
2022-09-16T09:06:03.456Z,971.68
2022-09-16T09:07:03.438Z,971.65
2022-09-16T09:08:03.387Z,971.68
2022-09-16T09:09:03.409Z,971.59
2022-09-16T09:10:08.594Z,971.59
2022-09-16T09:11:03.457Z,971.74
2022-09-16T09:12:03.651Z,971.62
2022-09-16T09:13:03.880Z,971.73
2022-09-16T09:14:03.481Z,971.56
2022-09-16T09:15:03.578Z,971.53
2022-09-16T09:16:03.693Z,971.58
2022-09-16T09:17:03.599Z,971.61
2022-09-16T09:18:03.683Z,971.52
2022-09-16T09:19:03.695Z,971.57
2022-09-16T09:20:03.751Z,971.54
2022-09-16T09:21:03.708Z,971.54
2022-09-16T09:22:03.700Z,971.50
2022-09-16T09:23:03.864Z,971.41
2022-09-16T09:24:03.902Z,971.41
2022-09-16T09:25:03.777Z,971.44
2022-09-16T09:26:02.902Z,971.58
2022-09-16T09:27:02.947Z,971.49
2022-09-16T09:28:02.961Z,971.55
2022-09-16T09:29:03.017Z,971.44
2022-09-16T09:30:03.091Z,971.47
2022-09-16T09:31:10.960Z,971.49
2022-09-16T09:32:03.291Z,971.73
2022-09-16T09:33:03.352Z,971.53
2022-09-16T09:34:03.088Z,971.50
2022-09-16T09:35:03.085Z,971.65
2022-09-16T09:36:03.671Z,971.68
2022-09-16T09:37:03.654Z,971.71
2022-09-16T09:38:03.818Z,971.69
2022-09-16T09:39:03.804Z,971.69
2022-09-16T09:40:03.906Z,971.64
2022-09-16T09:41:02.885Z,971.59
2022-09-16T09:42:03.011Z,971.62
2022-09-16T09:43:02.933Z,971.36
2022-09-16T09:44:03.043Z,971.54
2022-09-16T09:45:03.133Z,971.45
2022-09-16T09:46:03.113Z,971.51
2022-09-16T09:47:03.042Z,971.32
2022-09-16T09:48:02.959Z,971.34
2022-09-16T09:49:03.054Z,971.46
2022-09-16T09:50:03.079Z,971.25
2022-09-16T09:51:03.134Z,971.31
2022-09-16T09:52:03.138Z,971.13
2022-09-16T09:53:03.155Z,970.98
2022-09-16T09:54:03.424Z,971.06
2022-09-16T09:55:03.346Z,971.08
2022-09-16T09:56:03.336Z,970.90
2022-09-16T09:57:03.341Z,970.89
2022-09-16T09:58:03.300Z,970.97
2022-09-16T09:59:03.302Z,971.03
2022-09-16T10:00:03.288Z,970.94
2022-09-16T10:01:03.385Z,970.90
2022-09-16T10:02:03.376Z,970.93
2022-09-16T10:03:03.135Z,970.81
2022-09-16T10:04:02.949Z,971.01
2022-09-16T10:05:02.976Z,971.10
2022-09-16T10:06:03.099Z,971.10
2022-09-16T10:08:03.056Z,970.96
2022-09-16T10:09:03.109Z,971.07
2022-09-16T10:10:03.072Z,971.13
2022-09-16T10:11:03.077Z,971.22
2022-09-16T10:12:03.048Z,971.25
2022-09-16T10:13:03.006Z,971.28
2022-09-16T10:14:03.050Z,971.31
2022-09-16T10:15:03.060Z,971.29
2022-09-16T10:16:03.141Z,971.17
2022-09-16T10:17:03.258Z,971.32
2022-09-16T10:18:03.144Z,971.30
2022-09-16T10:19:03.150Z,971.33
2022-09-16T10:20:03.299Z,971.33
2022-09-16T10:21:03.247Z,971.33
2022-09-16T10:22:03.326Z,971.30
2022-09-16T10:23:03.337Z,971.27
2022-09-16T10:24:03.295Z,971.15
2022-09-16T10:25:03.218Z,971.11
2022-09-16T10:26:03.387Z,971.17
2022-09-16T10:27:03.359Z,971.25
2022-09-16T10:28:03.350Z,971.19
2022-09-16T10:29:03.380Z,971.21
2022-09-16T10:30:03.219Z,971.12
2022-09-16T10:31:03.364Z,971.06
2022-09-16T10:32:03.497Z,971.06
2022-09-16T10:33:03.252Z,971.12
2022-09-16T10:34:03.196Z,971.14
2022-09-16T10:35:03.181Z,971.12
2022-09-16T10:36:03.287Z,971.12
2022-09-16T10:37:03.268Z,971.09
2022-09-16T10:38:03.327Z,971.09
2022-09-16T10:39:05.736Z,971.15
2022-09-16T10:40:03.501Z,971.24
2022-09-16T10:41:03.487Z,971.27
2022-09-16T10:42:03.581Z,971.27
2022-09-16T10:43:03.473Z,971.19
2022-09-16T10:44:03.423Z,971.19
2022-09-16T10:45:03.506Z,971.13
2022-09-16T10:46:03.484Z,971.25
2022-09-16T10:47:03.373Z,971.25
2022-09-16T10:48:07.477Z,971.25
2022-09-16T10:49:03.424Z,971.19
2022-09-16T10:50:03.373Z,971.16
2022-09-16T10:51:03.438Z,971.19
2022-09-16T10:52:03.402Z,971.13
2022-09-16T10:53:03.439Z,971.09
2022-09-16T10:54:03.443Z,971.04
2022-09-16T10:55:03.440Z,971.09
2022-09-16T10:56:03.511Z,971.15
2022-09-16T10:57:03.510Z,971.15
2022-09-16T10:58:03.498Z,971.12
2022-09-16T10:59:03.518Z,971.20
2022-09-16T11:00:03.471Z,971.15
2022-09-16T11:01:03.837Z,971.15
2022-09-16T11:02:04.095Z,971.18
2022-09-16T11:03:03.039Z,971.15
2022-09-16T11:04:05.436Z,971.09
2022-09-16T11:05:02.935Z,971.09
2022-09-16T11:06:03.013Z,971.09
2022-09-16T11:07:03.511Z,971.09
2022-09-16T11:08:03.541Z,971.03
2022-09-16T11:09:03.577Z,971.09
2022-09-16T11:10:03.018Z,971.12
2022-09-16T11:11:03.079Z,970.97
2022-09-16T11:12:07.545Z,971.09
2022-09-16T11:13:03.562Z,971.06
2022-09-16T11:14:03.489Z,971.00
2022-09-16T11:15:03.405Z,970.94
2022-09-16T11:16:03.510Z,971.00
2022-09-16T11:17:03.714Z,970.97
2022-09-16T11:18:03.587Z,970.99
2022-09-16T11:19:03.795Z,970.67
2022-09-16T11:20:03.715Z,970.90
2022-09-16T11:21:03.809Z,970.89
2022-09-16T11:22:03.683Z,970.81
2022-09-16T11:23:03.787Z,970.83
2022-09-16T11:24:03.773Z,971.00
2022-09-16T11:25:03.879Z,970.85
2022-09-16T11:26:03.820Z,970.87
2022-09-16T11:27:03.881Z,970.96
2022-09-16T11:28:03.908Z,970.90
2022-09-16T11:29:02.909Z,970.98
2022-09-16T11:30:03.023Z,970.92
2022-09-16T11:31:03.267Z,971.00
2022-09-16T11:32:03.202Z,970.94
2022-09-16T11:33:04.685Z,971.02
2022-09-16T11:34:05.778Z,970.91
2022-09-16T11:35:03.342Z,971.05
2022-09-16T11:36:03.247Z,970.96
2022-09-16T11:37:03.693Z,971.04
2022-09-16T11:38:03.707Z,971.06
2022-09-16T11:39:03.623Z,971.06
2022-09-16T11:40:03.646Z,971.03
2022-09-16T11:41:03.621Z,971.20
2022-09-16T11:42:03.705Z,971.34
2022-09-16T11:43:03.753Z,971.16
2022-09-16T11:44:03.842Z,971.16
2022-09-16T11:45:03.020Z,971.19
2022-09-16T11:46:03.236Z,971.10
2022-09-16T11:47:03.069Z,971.22
2022-09-16T11:48:03.040Z,971.16
2022-09-16T11:49:03.030Z,971.25
2022-09-16T11:50:03.070Z,971.34
2022-09-16T11:51:03.107Z,971.25
2022-09-16T11:52:03.081Z,971.31
2022-09-16T11:53:06.703Z,971.23
2022-09-16T11:54:03.325Z,971.38
2022-09-16T11:55:03.420Z,971.24
2022-09-16T11:56:03.463Z,971.39
2022-09-16T11:57:03.565Z,971.36
2022-09-16T11:58:03.484Z,971.36
2022-09-16T11:59:03.518Z,971.40
2022-09-16T12:00:03.550Z,971.46
2022-09-16T12:01:03.606Z,971.34
2022-09-16T12:02:03.859Z,971.46
2022-09-16T12:03:03.828Z,971.43
2022-09-16T12:04:03.643Z,971.37
2022-09-16T12:05:03.628Z,971.34
2022-09-16T12:06:03.750Z,971.49
2022-09-16T12:07:03.763Z,971.43
2022-09-16T12:08:03.768Z,971.46
2022-09-16T12:09:07.809Z,971.49
2022-09-16T12:10:03.775Z,971.49
2022-09-16T12:11:03.793Z,971.43
2022-09-16T12:12:03.804Z,971.40
2022-09-16T12:13:03.873Z,971.37
2022-09-16T12:14:06.608Z,971.40
2022-09-16T12:15:06.217Z,971.46
2022-09-16T12:16:03.899Z,971.43
2022-09-16T12:17:03.034Z,971.43
2022-09-16T12:18:03.210Z,971.40
2022-09-16T12:19:03.225Z,971.31
2022-09-16T12:20:03.253Z,971.20
2022-09-16T12:21:03.364Z,971.37
2022-09-16T12:22:03.281Z,971.40
2022-09-16T12:23:03.386Z,971.40
2022-09-16T12:24:03.435Z,971.48
2022-09-16T12:25:03.461Z,971.51
2022-09-16T12:26:03.558Z,971.42
2022-09-16T12:27:03.469Z,971.42
2022-09-16T12:28:03.480Z,971.48
2022-09-16T12:29:03.432Z,971.51